createdAt,value
2022-11-22T06:46:00.250Z,1.59
2022-11-22T06:48:40.269Z,1.60
2022-11-22T06:51:19.699Z,1.64
2022-11-22T06:53:58.166Z,1.59
2022-11-22T06:56:40.902Z,1.63
2022-11-22T06:59:18.090Z,1.68
2022-11-22T07:02:02.915Z,1.72
2022-11-22T07:05:02.636Z,1.70
2022-11-22T07:07:40.462Z,1.69
2022-11-22T07:10:18.569Z,1.74
2022-11-22T07:12:55.646Z,1.78
2022-11-22T07:15:33.251Z,1.80
2022-11-22T07:18:13.161Z,1.84
2022-11-22T07:20:51.432Z,1.87
2022-11-22T07:23:28.260Z,1.90
2022-11-22T07:26:05.830Z,1.88
2022-11-22T07:28:43.109Z,1.96
2022-11-22T07:31:21.206Z,1.97
2022-11-22T07:34:01.351Z,2.00
2022-11-22T07:36:39.090Z,2.00
2022-11-22T07:39:16.014Z,2.01
2022-11-22T07:41:53.114Z,2.01
2022-11-22T07:44:29.754Z,2.05
2022-11-22T07:47:06.836Z,2.03
2022-11-22T07:49:46.242Z,2.04
2022-11-22T07:52:23.399Z,2.08
2022-11-22T07:55:00.310Z,2.11
2022-11-22T07:57:37.854Z,2.10
2022-11-22T08:00:17.205Z,2.14
2022-11-22T08:02:54.641Z,2.15
2022-11-22T08:05:34.060Z,2.15
2022-11-22T08:08:11.296Z,2.19
2022-11-22T08:10:49.548Z,2.23
2022-11-22T08:13:27.403Z,2.21
2022-11-22T08:16:09.382Z,2.24
2022-11-22T08:18:50.959Z,2.19
2022-11-22T08:21:30.307Z,2.26
2022-11-22T08:24:08.962Z,2.10
2022-11-22T08:26:46.671Z,2.25
2022-11-22T08:29:24.067Z,2.19
2022-11-22T08:32:01.009Z,2.21
2022-11-22T08:34:39.224Z,2.28
2022-11-22T08:37:22.259Z,2.28
2022-11-22T08:40:00.366Z,2.33
2022-11-22T08:42:37.228Z,2.28
2022-11-22T08:51:51.748Z,1.99
2022-11-22T08:58:06.531Z,1.98
2022-11-22T09:04:18.542Z,1.97
2022-11-22T09:10:30.859Z,2.09
2022-11-22T09:16:45.626Z,2.03
2022-11-22T09:22:58.024Z,2.01
2022-11-22T09:29:09.984Z,2.01
2022-11-22T09:35:25.018Z,2.00
2022-11-22T09:42:14.536Z,2.03
2022-11-22T09:45:48.461Z,2.05
2022-11-22T09:48:58.833Z,1.95
2022-11-22T09:51:44.906Z,1.92
2022-11-22T09:54:27.326Z,1.96
2022-11-22T09:57:12.807Z,1.91
2022-11-22T09:59:54.477Z,1.96
2022-11-22T10:02:58.974Z,1.99
2022-11-22T10:05:49.018Z,1.96
2022-11-22T10:08:43.221Z,1.94
2022-11-22T10:11:36.069Z,1.98
2022-11-22T10:14:29.132Z,2.05
2022-11-22T10:17:24.164Z,2.10
2022-11-22T10:20:10.533Z,2.06
2022-11-22T10:22:48.062Z,2.10
2022-11-22T10:25:39.481Z,2.07
2022-11-22T10:28:22.173Z,2.06
2022-11-22T10:31:05.909Z,2.09
2022-11-22T10:33:49.464Z,2.12
2022-11-22T10:36:38.869Z,2.02
2022-11-22T10:39:46.106Z,2.08
2022-11-22T10:43:01.140Z,2.08
2022-11-22T10:45:44.054Z,2.05
2022-11-22T10:48:30.799Z,2.04
2022-11-22T10:51:21.061Z,1.96
2022-11-22T10:54:14.059Z,2.01
2022-11-22T10:56:57.668Z,2.07
2022-11-22T11:00:02.108Z,2.12
2022-11-22T11:03:19.219Z,2.14
2022-11-22T11:12:04.266Z,2.08
2022-11-22T11:14:49.049Z,2.15
2022-11-22T11:17:33.019Z,2.14
2022-11-22T11:20:26.233Z,2.15
2022-11-22T11:23:18.934Z,2.14
2022-11-22T11:25:56.304Z,2.35
2022-11-22T11:28:33.547Z,2.40
2022-11-22T11:31:19.297Z,2.53
2022-11-22T11:34:16.648Z,2.54
2022-11-22T11:36:57.168Z,2.55
2022-11-22T11:39:40.598Z,2.54
2022-11-22T11:42:31.077Z,2.59
2022-11-22T11:45:31.568Z,2.67
2022-11-22T11:48:31.336Z,2.65
2022-11-22T11:51:19.767Z,2.67
2022-11-22T11:54:08.186Z,2.59
2022-11-22T11:56:54.578Z,2.57
2022-11-22T11:59:48.198Z,2.57
2022-11-22T12:02:26.285Z,2.61
2022-11-22T12:05:08.610Z,2.63
2022-11-22T12:07:48.534Z,2.59
2022-11-22T12:10:41.239Z,2.65
2022-11-22T12:13:27.866Z,2.64
2022-11-22T12:16:16.828Z,2.60
2022-11-22T12:19:02.329Z,2.61
2022-11-22T12:21:56.227Z,2.64
2022-11-22T12:24:52.684Z,2.64
2022-11-22T12:27:40.087Z,2.61
2022-11-22T12:30:19.597Z,2.64
2022-11-22T12:33:06.747Z,2.67
2022-11-22T12:35:54.141Z,2.59
2022-11-22T12:38:41.447Z,2.60
2022-11-22T12:41:23.917Z,2.61
2022-11-22T12:44:04.826Z,2.56
2022-11-22T12:46:45.549Z,2.53
2022-11-22T12:49:34.597Z,2.62
2022-11-22T12:52:23.144Z,2.66
2022-11-22T12:55:12.382Z,2.64
2022-11-22T12:57:57.130Z,2.67
2022-11-22T13:00:42.499Z,2.70
2022-11-22T13:03:27.116Z,2.68
2022-11-22T13:06:06.925Z,2.71
2022-11-22T13:08:55.553Z,2.72
2022-11-22T13:11:43.960Z,2.79
2022-11-22T13:14:27.470Z,2.75
2022-11-22T13:17:11.755Z,2.75
2022-11-22T13:19:54.899Z,2.79
2022-11-22T13:22:39.267Z,2.81
2022-11-22T13:25:53.081Z,2.83
2022-11-22T13:28:37.539Z,2.85
2022-11-22T13:31:22.190Z,2.84
2022-11-22T13:34:02.152Z,2.85
2022-11-22T13:36:43.940Z,2.83
2022-11-22T13:39:26.355Z,2.87
2022-11-22T13:42:09.508Z,2.87
2022-11-22T13:45:23.609Z,2.89
2022-11-22T13:48:00.913Z,2.87
2022-11-22T13:51:05.699Z,2.84
2022-11-22T13:53:45.439Z,2.89
2022-11-22T13:57:03.343Z,2.96
2022-11-22T13:59:40.699Z,2.94
2022-11-22T14:02:30.700Z,2.91
2022-11-22T14:05:21.989Z,2.98
2022-11-22T14:08:00.708Z,2.97
2022-11-22T14:10:44.972Z,2.96
2022-11-22T14:13:48.598Z,3.02
2022-11-22T14:16:55.890Z,3.05
2022-11-22T14:19:57.458Z,2.96
2022-11-22T14:22:59.091Z,3.04
2022-11-22T14:25:59.869Z,3.07
2022-11-22T14:29:11.677Z,3.09
2022-11-22T14:31:57.450Z,3.05
2022-11-22T14:34:38.107Z,3.05
2022-11-22T14:37:49.400Z,3.06
2022-11-22T14:40:40.803Z,3.04
2022-11-22T14:43:32.376Z,3.07
2022-11-22T14:46:45.207Z,3.06
2022-11-22T14:49:23.007Z,3.03
2022-11-22T14:52:03.639Z,3.02
2022-11-22T14:54:49.361Z,3.03
2022-11-22T14:57:30.369Z,3.05
2022-11-22T15:00:20.246Z,3.02
2022-11-22T15:03:33.249Z,3.09
2022-11-22T15:09:21.987Z,3.11
2022-11-22T15:10:22.120Z,3.17
2022-11-22T15:13:41.742Z,3.07
2022-11-22T15:58:38.167Z,3.28
2022-11-22T16:01:21.773Z,3.00
2022-11-22T16:04:02.526Z,2.93
2022-11-22T16:06:45.988Z,2.87
2022-11-22T16:09:28.163Z,2.94
2022-11-22T16:12:08.546Z,2.87
2022-11-22T16:14:59.917Z,2.90
2022-11-22T16:17:59.413Z,2.94
2022-11-22T16:20:44.976Z,2.92
2022-11-22T16:23:30.479Z,2.93
2022-11-22T16:26:25.205Z,2.94
2022-11-22T16:29:26.737Z,2.93
2022-11-22T16:32:07.004Z,2.95
2022-11-22T16:34:51.651Z,2.93
2022-11-22T16:37:52.457Z,2.93
2022-11-22T16:40:45.906Z,2.93
2022-11-22T16:43:37.624Z,2.90
2022-11-22T16:46:17.666Z,2.93
2022-11-22T16:48:55.950Z,2.91
2022-11-22T16:51:37.188Z,2.90
2022-11-22T16:54:20.933Z,2.95
2022-11-22T16:56:57.925Z,2.92
2022-11-22T16:59:35.906Z,2.93
2022-11-22T17:02:16.487Z,2.93
2022-11-22T17:05:06.415Z,2.90
2022-11-22T17:08:03.153Z,2.91
2022-11-22T17:10:51.218Z,2.89
2022-11-22T17:13:30.449Z,2.88
2022-11-22T17:16:08.965Z,2.87
2022-11-22T17:18:47.221Z,2.90
2022-11-22T17:21:36.083Z,2.93
2022-11-22T17:24:24.256Z,2.95
2022-11-22T17:27:05.108Z,2.91
2022-11-22T17:30:01.854Z,2.94
2022-11-22T17:32:56.739Z,2.91
2022-11-22T17:35:44.948Z,2.98
2022-11-22T17:38:36.563Z,2.90
2022-11-22T17:41:30.975Z,2.94
2022-11-22T17:44:11.256Z,2.91
2022-11-22T17:46:52.639Z,2.92
2022-11-22T17:49:31.486Z,2.91
2022-11-22T17:52:09.824Z,2.93
2022-11-22T17:54:49.052Z,2.86
2022-11-22T17:57:30.044Z,2.89
2022-11-22T18:00:12.586Z,2.89
2022-11-22T18:02:50.490Z,2.91
2022-11-22T18:05:31.636Z,2.87
2022-11-22T18:08:11.185Z,2.90
2022-11-22T18:10:50.148Z,2.89
2022-11-22T18:13:31.888Z,2.91
2022-11-22T18:16:15.086Z,2.86
2022-11-22T18:18:57.417Z,2.81
2022-11-22T18:21:40.295Z,2.87
2022-11-22T18:24:21.826Z,2.88
2022-11-22T18:27:03.805Z,2.91
2022-11-22T18:29:46.256Z,2.84
2022-11-22T18:32:27.329Z,2.89
2022-11-22T18:35:06.481Z,2.87
2022-11-22T18:37:45.068Z,2.89
2022-11-22T18:40:23.458Z,2.84
2022-11-22T18:43:03.176Z,2.88
2022-11-22T18:45:43.773Z,2.89
2022-11-22T18:48:22.764Z,2.89
2022-11-22T18:51:09.763Z,2.92
2022-11-22T18:53:48.585Z,2.86
2022-11-22T18:56:28.837Z,2.89
2022-11-22T18:59:10.125Z,2.79
2022-11-22T19:01:50.464Z,2.86
2022-11-22T19:04:30.466Z,2.91
2022-11-22T19:07:09.037Z,2.90
2022-11-22T19:09:47.541Z,2.88
2022-11-22T19:12:31.904Z,2.92
2022-11-22T19:15:12.583Z,2.91
2022-11-22T19:17:53.163Z,2.90
2022-11-22T19:20:54.164Z,2.93
2022-11-22T19:23:30.732Z,2.95
2022-11-22T19:26:14.128Z,2.91
2022-11-22T19:28:56.503Z,2.93
2022-11-22T19:31:35.492Z,2.93
2022-11-22T19:34:16.424Z,2.90
2022-11-22T19:36:54.893Z,2.89
2022-11-22T19:39:33.580Z,2.91
2022-11-22T19:42:12.153Z,2.89
2022-11-22T19:44:50.638Z,2.91
2022-11-22T19:47:30.110Z,2.90
2022-11-22T19:50:22.437Z,2.91
2022-11-22T19:53:06.254Z,2.90
2022-11-22T19:55:49.256Z,2.86
2022-11-22T19:58:28.632Z,2.83
2022-11-22T20:01:11.732Z,2.78
2022-11-22T20:03:50.477Z,2.79
2022-11-22T20:06:32.204Z,2.78
2022-11-22T20:09:14.422Z,2.78
2022-11-22T20:11:54.143Z,2.75
2022-11-22T20:14:33.101Z,2.76
2022-11-22T20:17:15.284Z,2.75
2022-11-22T20:19:53.265Z,2.75
2022-11-22T20:22:47.624Z,2.80
2022-11-22T20:25:28.444Z,2.77
2022-11-22T20:28:09.343Z,2.76
2022-11-22T20:30:47.702Z,2.69
2022-11-22T20:33:25.563Z,2.73
2022-11-22T20:36:11.145Z,2.74
2022-11-22T20:38:58.254Z,2.76
2022-11-22T20:41:37.074Z,2.70
2022-11-22T20:44:23.146Z,2.74
2022-11-22T20:47:03.501Z,2.72
2022-11-22T20:49:47.143Z,2.78
2022-11-22T20:52:25.763Z,2.76
2022-11-22T20:55:07.093Z,2.77
2022-11-22T20:57:45.523Z,2.77
2022-11-22T21:00:25.916Z,2.77
2022-11-22T21:03:04.561Z,2.75
2022-11-22T21:05:42.101Z,2.77
2022-11-22T21:08:20.250Z,2.76
2022-11-22T21:11:10.552Z,2.80
2022-11-22T21:13:50.930Z,2.78
2022-11-22T21:16:31.529Z,2.77
2022-11-22T21:19:09.945Z,2.77
2022-11-22T21:21:47.630Z,2.74
2022-11-22T21:24:24.863Z,2.73
2022-11-22T21:27:04.771Z,2.79
2022-11-22T21:29:42.080Z,2.78
2022-11-22T21:32:19.110Z,2.79
2022-11-22T21:34:56.529Z,2.77
2022-11-22T21:37:37.483Z,2.81
2022-11-22T21:40:17.290Z,2.81
